createdAt,value
2019-03-28T06:07:42.767Z,1.70
2019-03-28T06:08:42.728Z,1.70
2019-03-28T06:09:42.684Z,1.70
2019-03-28T06:10:42.741Z,1.40
2019-03-28T06:11:42.633Z,1.60
2019-03-28T06:12:42.610Z,1.30
2019-03-28T06:13:42.586Z,1.60
2019-03-28T06:14:42.575Z,2.40
2019-03-28T06:15:42.563Z,2.00
2019-03-28T06:25:52.340Z,1.70
2019-03-28T06:26:50.893Z,2.10
2019-03-28T06:27:50.884Z,1.50
2019-03-28T06:28:51.372Z,1.80
2019-03-28T06:29:50.852Z,2.10
2019-03-28T06:30:50.893Z,1.90
2019-03-28T06:31:55.619Z,1.60
2019-03-28T06:32:51.836Z,1.60
2019-03-28T06:39:05.902Z,1.70
2019-03-28T06:40:05.827Z,1.80
2019-03-28T06:41:05.659Z,1.70
2019-03-28T06:42:05.666Z,1.90
2019-03-28T06:43:05.669Z,1.50
2019-03-28T06:44:05.628Z,2.20
2019-03-28T06:45:05.615Z,2.30
2019-03-28T06:46:05.663Z,2.20
2019-03-28T06:47:05.590Z,2.00
2019-03-28T06:48:05.528Z,2.70
2019-03-28T06:49:05.492Z,1.80
2019-03-28T06:50:05.580Z,1.70
2019-03-28T06:51:05.482Z,2.40
2019-03-28T06:52:05.539Z,1.90
2019-03-28T06:53:05.495Z,2.40
2019-03-28T06:54:05.425Z,1.50
2019-03-28T06:55:06.504Z,1.50
2019-03-28T06:56:05.415Z,1.60
2019-03-28T06:57:05.456Z,2.30
2019-03-28T06:58:05.439Z,1.90
2019-03-28T06:59:05.355Z,1.70
2019-03-28T07:00:05.344Z,2.40
2019-03-28T07:01:05.328Z,2.00
2019-03-28T07:02:05.319Z,1.80
2019-03-28T07:03:05.364Z,2.50
2019-03-28T07:04:05.335Z,1.90
2019-03-28T07:05:05.290Z,2.00
2019-03-28T07:06:05.299Z,2.10
2019-03-28T07:07:05.259Z,1.70
2019-03-28T07:08:05.259Z,2.50
2019-03-28T07:09:05.252Z,1.70
2019-03-28T07:10:05.255Z,1.70
2019-03-28T07:11:05.248Z,1.70
2019-03-28T07:12:05.229Z,2.20
2019-03-28T07:13:05.206Z,1.60
2019-03-28T07:14:05.207Z,2.00
2019-03-28T07:15:05.211Z,1.80
2019-03-28T07:16:05.183Z,1.90
2019-03-28T07:17:05.172Z,2.00
2019-03-28T07:18:05.158Z,2.10
2019-03-28T07:19:05.137Z,1.80
2019-03-28T07:20:05.137Z,1.90
2019-03-28T07:21:05.126Z,1.50
2019-03-28T07:22:05.095Z,2.20
2019-03-28T07:23:05.123Z,1.90
2019-03-28T07:24:05.080Z,2.10
2019-03-28T07:25:05.078Z,1.90
2019-03-28T07:26:05.085Z,1.90
2019-03-28T07:27:05.045Z,1.90
2019-03-28T07:28:06.465Z,2.00
2019-03-28T07:29:05.023Z,2.50
2019-03-28T07:30:05.022Z,2.40
2019-03-28T07:31:05.052Z,1.80
2019-03-28T07:32:04.987Z,2.10
2019-03-28T07:33:04.991Z,2.10
2019-03-28T07:34:04.965Z,2.60
2019-03-28T07:35:04.966Z,2.00
2019-03-28T07:36:04.950Z,1.90
2019-03-28T07:37:04.974Z,2.00
2019-03-28T07:38:04.918Z,1.90
2019-03-28T07:39:04.919Z,2.10
2019-03-28T07:40:04.906Z,2.20
2019-03-28T07:41:04.901Z,2.20
2019-03-28T07:42:04.887Z,1.60
2019-03-28T07:43:04.893Z,1.90
2019-03-28T07:44:04.861Z,1.70
2019-03-28T07:45:04.852Z,1.80
2019-03-28T07:46:04.830Z,1.40
2019-03-28T07:47:04.884Z,1.70
2019-03-28T07:48:04.828Z,2.30
2019-03-28T07:49:04.792Z,1.90
2019-03-28T07:50:04.795Z,1.90
2019-03-28T07:51:04.805Z,1.50
2019-03-28T07:52:04.773Z,2.10
2019-03-28T07:53:04.774Z,1.70
2019-03-28T07:54:04.820Z,2.30
2019-03-28T07:55:05.624Z,1.70
2019-03-28T07:56:04.736Z,2.00
2019-03-28T07:57:04.720Z,1.70
2019-03-28T07:58:07.351Z,1.70
2019-03-28T07:59:04.704Z,1.90
2019-03-28T08:00:05.375Z,1.60
2019-03-28T08:01:04.676Z,1.30
2019-03-28T08:02:04.663Z,1.50
2019-03-28T08:03:04.656Z,1.80
2019-03-28T08:04:04.659Z,1.30
2019-03-28T08:05:04.644Z,1.90
2019-03-28T08:06:04.605Z,2.20
2019-03-28T08:07:04.593Z,1.40
2019-03-28T08:08:04.592Z,1.60
2019-03-28T08:09:04.590Z,1.50
2019-03-28T08:10:04.561Z,1.50
2019-03-28T08:11:04.596Z,1.20
2019-03-28T08:12:04.908Z,1.60
2019-03-28T08:13:04.525Z,1.60
2019-03-28T08:14:04.563Z,1.20
2019-03-28T08:15:04.500Z,1.70
2019-03-28T08:16:04.521Z,1.50
2019-03-28T08:17:04.479Z,1.50
2019-03-28T08:18:04.486Z,1.20
2019-03-28T08:19:07.735Z,1.10
2019-03-28T08:20:04.507Z,1.50
2019-03-28T08:21:04.449Z,1.30
2019-03-28T08:22:04.422Z,1.50
2019-03-28T08:23:04.422Z,1.40
2019-03-28T08:24:04.431Z,1.70
2019-03-28T08:25:07.081Z,1.50
2019-03-28T08:26:05.393Z,0.90
2019-03-28T08:27:04.378Z,1.40
2019-03-28T08:28:04.370Z,1.40
2019-03-28T08:29:04.361Z,1.40
2019-03-28T08:30:17.296Z,1.20
2019-03-28T08:31:05.345Z,1.50
2019-03-28T08:32:04.343Z,1.40
2019-03-28T08:33:04.327Z,1.70
2019-03-28T08:34:04.290Z,1.40
2019-03-28T08:35:05.518Z,1.90
2019-03-28T08:36:06.228Z,1.50
2019-03-28T08:37:04.278Z,1.20
2019-03-28T08:38:04.257Z,1.90
2019-03-28T08:39:04.266Z,1.60
2019-03-28T08:40:04.230Z,1.40
2019-03-28T08:41:07.018Z,1.40
2019-03-28T08:42:04.227Z,1.30
2019-03-28T08:43:04.198Z,1.30
2019-03-28T08:44:07.208Z,1.30
2019-03-28T08:45:04.182Z,1.20
2019-03-28T08:46:04.205Z,1.30
2019-03-28T08:47:06.233Z,1.20
2019-03-28T08:48:04.147Z,1.30
2019-03-28T08:49:04.145Z,1.30
2019-03-28T08:50:04.119Z,1.80
2019-03-28T08:51:04.109Z,1.10
2019-03-28T08:52:04.115Z,1.20
2019-03-28T08:53:04.095Z,1.90
2019-03-28T08:54:04.080Z,1.10
2019-03-28T08:55:04.065Z,1.00
2019-03-28T08:56:04.072Z,1.30
2019-03-28T08:57:04.062Z,1.10
2019-03-28T08:58:04.056Z,1.40
2019-03-28T08:59:04.123Z,0.90
2019-03-28T09:00:04.039Z,1.00
2019-03-28T09:01:05.941Z,1.10
2019-03-28T09:02:05.225Z,0.90
2019-03-28T09:03:04.091Z,1.40
2019-03-28T09:04:03.959Z,1.30
2019-03-28T09:05:03.943Z,1.10
2019-03-28T09:06:03.948Z,1.30
2019-03-28T09:07:03.948Z,1.40
2019-03-28T09:08:03.924Z,1.10
2019-03-28T09:09:03.954Z,1.10
2019-03-28T09:10:03.915Z,1.20
2019-03-28T09:11:03.914Z,1.20
2019-03-28T09:12:03.875Z,1.40
2019-03-28T09:13:03.898Z,1.20
2019-03-28T09:14:03.852Z,1.50
2019-03-28T09:15:03.859Z,1.60
2019-03-28T09:16:03.824Z,1.20
2019-03-28T09:17:03.813Z,1.40
2019-03-28T09:18:03.805Z,1.20
2019-03-28T09:19:03.914Z,1.00
2019-03-28T09:20:03.794Z,0.90
2019-03-28T09:21:03.795Z,1.00
2019-03-28T09:22:03.775Z,1.30
2019-03-28T09:23:03.759Z,1.10
2019-03-28T09:24:03.746Z,0.80
2019-03-28T09:25:03.728Z,0.90
2019-03-28T09:26:04.551Z,0.80
2019-03-28T09:27:03.711Z,1.20
2019-03-28T09:28:03.706Z,0.90
2019-03-28T09:29:03.700Z,1.20
2019-03-28T09:30:03.683Z,0.80
2019-03-28T09:31:03.690Z,1.10
2019-03-28T09:32:03.667Z,1.10
2019-03-28T09:33:03.692Z,1.30
2019-03-28T09:34:03.629Z,0.90
2019-03-28T09:35:03.611Z,0.90
2019-03-28T09:36:03.610Z,1.30
2019-03-28T09:37:03.597Z,1.00
2019-03-28T09:38:03.603Z,1.20
2019-03-28T09:39:03.572Z,1.30
2019-03-28T09:40:03.581Z,1.10
2019-03-28T09:41:03.554Z,1.20
2019-03-28T09:42:03.543Z,1.30
2019-03-28T09:43:03.566Z,1.20
2019-03-28T09:44:03.514Z,0.90
2019-03-28T09:45:03.525Z,1.40
2019-03-28T09:46:03.502Z,1.10
2019-03-28T09:47:03.493Z,1.10
2019-03-28T09:48:03.474Z,1.40
2019-03-28T09:49:03.475Z,1.20
2019-03-28T09:50:03.447Z,1.20
2019-03-28T09:51:03.503Z,1.60
2019-03-28T09:52:03.433Z,1.50
2019-03-28T09:53:03.432Z,1.30
2019-03-28T09:54:03.432Z,1.30
2019-03-28T09:55:03.408Z,1.10
2019-03-28T09:56:03.388Z,1.30
2019-03-28T09:57:03.385Z,1.20
2019-03-28T09:58:03.379Z,1.20
2019-03-28T09:59:03.368Z,1.40
2019-03-28T10:00:03.370Z,1.60
2019-03-28T10:01:03.535Z,1.30
2019-03-28T10:02:03.394Z,1.30
2019-03-28T10:03:03.328Z,1.10
2019-03-28T10:04:06.264Z,1.00
2019-03-28T10:05:03.305Z,1.50
2019-03-28T10:06:03.281Z,1.60
2019-03-28T10:07:03.262Z,1.10
2019-03-28T10:08:03.270Z,1.00
2019-03-28T10:09:03.252Z,1.40
2019-03-28T10:10:03.873Z,1.30
2019-03-28T10:11:03.249Z,1.40
2019-03-28T10:12:03.215Z,1.50
2019-03-28T10:13:03.194Z,1.00
2019-03-28T10:14:03.188Z,1.40
2019-03-28T10:15:03.192Z,1.20
2019-03-28T10:16:03.162Z,1.30
2019-03-28T10:17:03.180Z,1.40
2019-03-28T10:18:03.195Z,1.20
2019-03-28T10:19:03.133Z,1.30
2019-03-28T10:20:10.814Z,1.50
2019-03-28T10:21:03.139Z,1.30
2019-03-28T10:22:03.090Z,1.00
2019-03-28T10:23:03.118Z,1.30
2019-03-28T10:24:03.158Z,1.50
2019-03-28T10:25:03.161Z,1.20
2019-03-28T10:26:03.125Z,1.20
2019-03-28T10:27:03.041Z,1.90
2019-03-28T10:28:03.057Z,1.30
2019-03-28T10:54:02.753Z,1.30
2019-03-28T10:55:02.736Z,1.20
2019-03-28T10:56:02.712Z,1.10
2019-03-28T10:57:13.007Z,0.90
2019-03-28T10:58:17.175Z,1.10
2019-03-28T10:59:03.597Z,0.80
2019-03-28T11:00:02.545Z,1.00
2019-03-28T11:01:02.529Z,0.90
2019-03-28T11:02:02.529Z,1.20
2019-03-28T11:03:02.562Z,1.20
2019-03-28T13:16:40.450Z,0.50
2019-03-28T13:17:40.424Z,0.40
2019-03-28T13:18:40.335Z,0.80
2019-03-28T13:19:40.395Z,0.60
2019-03-28T13:20:40.295Z,0.80
2019-03-28T13:21:40.298Z,0.50
2019-03-28T13:22:40.259Z,0.70
2019-03-28T14:36:17.585Z,0.90
2019-03-28T14:37:17.541Z,0.80
2019-03-28T14:38:17.591Z,0.80
2019-03-28T14:39:17.564Z,0.90
2019-03-28T14:40:17.475Z,0.60
2019-03-28T14:41:17.439Z,0.60
2019-03-28T14:42:19.683Z,0.60
2019-03-28T14:43:17.370Z,0.50
2019-03-28T14:47:03.518Z,0.80
2019-03-28T14:48:00.769Z,0.80
2019-03-28T14:49:21.783Z,0.80
2019-03-28T14:50:37.812Z,0.70
2019-03-28T14:51:00.547Z,0.80
2019-03-28T14:52:00.532Z,0.70
2019-03-28T14:53:00.528Z,0.60
2019-03-28T14:54:00.310Z,0.70
2019-03-28T14:55:02.360Z,0.50
2019-03-28T14:56:00.630Z,0.60
2019-03-28T14:57:00.939Z,0.50
2019-03-28T14:58:00.346Z,0.60
2019-03-28T14:59:01.387Z,0.50
2019-03-28T15:00:01.131Z,0.60
2019-03-28T15:03:25.012Z,0.50
